sensor_id;sensor_type;location;lat;lon;timestamp;pressure;altitude;pressure_sealevel;temperature;humidity
21728;BME280;11026;50.560;17.852;2023-04-02T00:09:15;98570.47;;;8.56;100.00
21728;BME280;11026;50.560;17.852;2023-04-02T00:11:48;98570.00;;;8.48;100.00
21728;BME280;11026;50.560;17.852;2023-04-02T00:14:31;98565.88;;;8.60;100.00
21728;BME280;11026;50.560;17.852;2023-04-02T00:17:03;98569.13;;;8.65;100.00
21728;BME280;11026;50.560;17.852;2023-04-02T00:19:59;98573.38;;;8.50;100.00
21728;BME280;11026;50.560;17.852;2023-04-02T00:22:30;98574.94;;;8.54;100.00
21728;BME280;11026;50.560;17.852;2023-04-02T00:25:11;98578.81;;;8.47;100.00
21728;BME280;11026;50.560;17.852;2023-04-02T00:27:41;98580.84;;;8.42;100.00
21728;BME280;11026;50.560;17.852;2023-04-02T00:30:11;98582.78;;;8.56;100.00
21728;BME280;11026;50.560;17.852;2023-04-02T00:32:40;98589.59;;;8.43;100.00
21728;BME280;11026;50.560;17.852;2023-04-02T00:35:24;98582.78;;;8.38;100.00
21728;BME280;11026;50.560;17.852;2023-04-02T00:37:53;98595.94;;;8.38;100.00
21728;BME280;11026;50.560;17.852;2023-04-02T00:40:25;98584.13;;;8.28;100.00
21728;BME280;11026;50.560;17.852;2023-04-02T00:42:57;98586.84;;;8.27;100.00
21728;BME280;11026;50.560;17.852;2023-04-02T00:45:27;98591.81;;;8.33;100.00
21728;BME280;11026;50.560;17.852;2023-04-02T00:47:59;98591.88;;;8.31;100.00
21728;BME280;11026;50.560;17.852;2023-04-02T00:50:33;98597.78;;;8.36;100.00
21728;BME280;11026;50.560;17.852;2023-04-02T00:53:26;98591.53;;;8.39;100.00
21728;BME280;11026;50.560;17.852;2023-04-02T00:55:56;98588.25;;;8.34;100.00
21728;BME280;11026;50.560;17.852;2023-04-02T00:58:28;98586.84;;;8.27;100.00
21728;BME280;11026;50.560;17.852;2023-04-02T01:01:00;98598.09;;;7.94;100.00
21728;BME280;11026;50.560;17.852;2023-04-02T01:08:51;98603.88;;;7.83;100.00
21728;BME280;11026;50.560;17.852;2023-04-02T01:17:40;98601.91;;;7.70;100.00
21728;BME280;11026;50.560;17.852;2023-04-02T01:23:09;98614.94;;;7.73;100.00
21728;BME280;11026;50.560;17.852;2023-04-02T01:26:20;98618.75;;;7.66;100.00
21728;BME280;11026;50.560;17.852;2023-04-02T01:31:17;98610.78;;;7.48;100.00
21728;BME280;11026;50.560;17.852;2023-04-02T01:33:46;98618.66;;;7.48;100.00
21728;BME280;11026;50.560;17.852;2023-04-02T01:36:20;98620.75;;;7.60;100.00
21728;BME280;11026;50.560;17.852;2023-04-02T01:45:13;98626.06;;;7.40;100.00
21728;BME280;11026;50.560;17.852;2023-04-02T01:47:25;98623.94;;;7.29;100.00
21728;BME280;11026;50.560;17.852;2023-04-02T01:50:06;98626.22;;;7.37;100.00
21728;BME280;11026;50.560;17.852;2023-04-02T01:52:42;98633.44;;;7.32;100.00
21728;BME280;11026;50.560;17.852;2023-04-02T01:55:14;98635.94;;;7.35;100.00
21728;BME280;11026;50.560;17.852;2023-04-02T01:57:48;98639.56;;;7.32;100.00
21728;BME280;11026;50.560;17.852;2023-04-02T02:00:24;98640.78;;;7.25;100.00
21728;BME280;11026;50.560;17.852;2023-04-02T02:02:53;98648.22;;;7.15;100.00
21728;BME280;11026;50.560;17.852;2023-04-02T02:05:22;98654.06;;;7.22;100.00
21728;BME280;11026;50.560;17.852;2023-04-02T02:07:51;98657.53;;;7.23;100.00
21728;BME280;11026;50.560;17.852;2023-04-02T02:10:28;98660.16;;;7.23;100.00
21728;BME280;11026;50.560;17.852;2023-04-02T02:12:57;98662.03;;;7.21;100.00
21728;BME280;11026;50.560;17.852;2023-04-02T02:15:26;98663.25;;;7.12;100.00
21728;BME280;11026;50.560;17.852;2023-04-02T02:18:02;98668.06;;;7.23;100.00
21728;BME280;11026;50.560;17.852;2023-04-02T02:20:31;98663.31;;;7.31;100.00
21728;BME280;11026;50.560;17.852;2023-04-02T02:23:02;98668.06;;;7.23;100.00
21728;BME280;11026;50.560;17.852;2023-04-02T02:25:36;98668.06;;;7.23;100.00
21728;BME280;11026;50.560;17.852;2023-04-02T02:31:04;98672.41;;;7.03;100.00
21728;BME280;11026;50.560;17.852;2023-04-02T02:33:38;98678.84;;;6.96;100.00
21728;BME280;11026;50.560;17.852;2023-04-02T02:46:43;98688.31;;;6.80;100.00
21728;BME280;11026;50.560;17.852;2023-04-02T02:49:15;98690.28;;;6.75;100.00
21728;BME280;11026;50.560;17.852;2023-04-02T02:51:51;98697.75;;;6.63;100.00
21728;BME280;11026;50.560;17.852;2023-04-02T02:54:21;98701.34;;;6.61;100.00
21728;BME280;11026;50.560;17.852;2023-04-02T02:57:00;98704.78;;;6.63;100.00
21728;BME280;11026;50.560;17.852;2023-04-02T02:59:31;98714.75;;;6.55;100.00
21728;BME280;11026;50.560;17.852;2023-04-02T03:02:00;98721.91;;;6.51;100.00
21728;BME280;11026;50.560;17.852;2023-04-02T03:04:31;98719.28;;;6.51;100.00
21728;BME280;11026;50.560;17.852;2023-04-02T03:07:03;98728.16;;;6.27;100.00
21728;BME280;11026;50.560;17.852;2023-04-02T03:09:40;98731.44;;;6.32;100.00
21728;BME280;11026;50.560;17.852;2023-04-02T03:15:16;98745.28;;;6.13;100.00
21728;BME280;11026;50.560;17.852;2023-04-02T03:23:35;98753.06;;;5.93;100.00
21728;BME280;11026;50.560;17.852;2023-04-02T03:28:46;98766.50;;;5.84;100.00
21728;BME280;11026;50.560;17.852;2023-04-02T03:34:21;98775.69;;;5.72;100.00
21728;BME280;11026;50.560;17.852;2023-04-02T03:37:04;98778.13;;;5.77;100.00
21728;BME280;11026;50.560;17.852;2023-04-02T03:39:38;98786.91;;;5.76;100.00
21728;BME280;11026;50.560;17.852;2023-04-02T03:44:59;98799.34;;;5.71;100.00
21728;BME280;11026;50.560;17.852;2023-04-02T03:48:24;98806.66;;;5.62;100.00
21728;BME280;11026;50.560;17.852;2023-04-02T03:50:30;98805.25;;;5.52;100.00
21728;BME280;11026;50.560;17.852;2023-04-02T03:53:02;98814.19;;;5.47;100.00
21728;BME280;11026;50.560;17.852;2023-04-02T03:55:34;98822.19;;;5.42;100.00
21728;BME280;11026;50.560;17.852;2023-04-02T04:01:04;98835.63;;;5.33;100.00
21728;BME280;11026;50.560;17.852;2023-04-02T04:03:45;98837.47;;;5.31;100.00
21728;BME280;11026;50.560;17.852;2023-04-02T04:06:22;98849.97;;;5.23;100.00
21728;BME280;11026;50.560;17.852;2023-04-02T04:08:57;98858.81;;;5.18;100.00
21728;BME280;11026;50.560;17.852;2023-04-02T04:11:34;98866.00;;;5.13;100.00
21728;BME280;11026;50.560;17.852;2023-04-02T04:14:08;98863.38;;;5.13;100.00
21728;BME280;11026;50.560;17.852;2023-04-02T04:16:55;98872.25;;;5.09;100.00
21728;BME280;11026;50.560;17.852;2023-04-02T04:19:37;98874.97;;;5.06;100.00
21728;BME280;11026;50.560;17.852;2023-04-02T04:22:15;98878.88;;;4.93;100.00
21728;BME280;11026;50.560;17.852;2023-04-02T04:24:46;98886.03;;;4.88;100.00
21728;BME280;11026;50.560;17.852;2023-04-02T04:30:03;98898.63;;;4.77;100.00
21728;BME280;11026;50.560;17.852;2023-04-02T04:32:35;98895.28;;;4.72;100.00
21728;BME280;11026;50.560;17.852;2023-04-02T04:37:42;98908.75;;;4.59;100.00
21728;BME280;11026;50.560;17.852;2023-04-02T04:40:26;98914.00;;;4.59;100.00
21728;BME280;11026;50.560;17.852;2023-04-02T04:42:58;98917.41;;;4.61;100.00
21728;BME280;11026;50.560;17.852;2023-04-02T04:45:47;98927.03;;;4.61;100.00
21728;BME280;11026;50.560;17.852;2023-04-02T04:48:49;98926.22;;;4.59;100.00
21728;BME280;11026;50.560;17.852;2023-04-02T04:51:44;98933.97;;;4.63;100.00
21728;BME280;11026;50.560;17.852;2023-04-02T04:54:14;98945.31;;;4.62;100.00
21728;BME280;11026;50.560;17.852;2023-04-02T04:56:54;98941.91;;;4.60;100.00
21728;BME280;11026;50.560;17.852;2023-04-02T04:59:46;98953.16;;;4.62;100.00
21728;BME280;11026;50.560;17.852;2023-04-02T05:02:22;98961.00;;;4.64;100.00
21728;BME280;11026;50.560;17.852;2023-04-02T05:04:52;98963.78;;;4.59;100.00
21728;BME280;11026;50.560;17.852;2023-04-02T05:07:43;98973.34;;;4.59;100.00
21728;BME280;11026;50.560;17.852;2023-04-02T05:10:40;98970.94;;;4.51;100.00
21728;BME280;11026;50.560;17.852;2023-04-02T05:13:19;98980.75;;;4.44;100.00
21728;BME280;11026;50.560;17.852;2023-04-02T05:18:30;98983.66;;;4.34;100.00
21728;BME280;11026;50.560;17.852;2023-04-02T05:21:22;99001.34;;;4.26;100.00
21728;BME280;11026;50.560;17.852;2023-04-02T05:23:55;99007.56;;;4.22;100.00
21728;BME280;11026;50.560;17.852;2023-04-02T05:26:39;99011.13;;;4.19;100.00
21728;BME280;11026;50.560;17.852;2023-04-02T05:31:46;99021.06;;;4.06;100.00
21728;BME280;11026;50.560;17.852;2023-04-02T05:34:24;99029.16;;;3.97;100.00
21728;BME280;11026;50.560;17.852;2023-04-02T05:36:53;99040.66;;;3.90;100.00
21728;BME280;11026;50.560;17.852;2023-04-02T05:39:23;99036.53;;;3.81;100.00
21728;BME280;11026;50.560;17.852;2023-04-02T05:42:03;99047.91;;;3.79;100.00
21728;BME280;11026;50.560;17.852;2023-04-02T05:44:33;99044.66;;;3.69;100.00
21728;BME280;11026;50.560;17.852;2023-04-02T05:47:08;99057.69;;;3.70;100.00
21728;BME280;11026;50.560;17.852;2023-04-02T05:52:10;99059.41;;;3.73;100.00
21728;BME280;11026;50.560;17.852;2023-04-02T05:54:51;99063.66;;;3.77;100.00
21728;BME280;11026;50.560;17.852;2023-04-02T05:57:30;99079.31;;;3.79;100.00
21728;BME280;11026;50.560;17.852;2023-04-02T06:00:27;99082.03;;;3.74;100.00
21728;BME280;11026;50.560;17.852;2023-04-02T06:03:06;99069.69;;;3.79;100.00
21728;BME280;11026;50.560;17.852;2023-04-02T06:05:44;99088.06;;;3.78;100.00
21728;BME280;11026;50.560;17.852;2023-04-02T06:08:20;99095.00;;;3.79;100.00
21728;BME280;11026;50.560;17.852;2023-04-02T06:13:27;99101.13;;;3.78;100.00
21728;BME280;11026;50.560;17.852;2023-04-02T06:15:55;99103.59;;;3.84;100.00
21728;BME280;11026;50.560;17.852;2023-04-02T06:18:24;99102.41;;;4.33;100.00
21728;BME280;11026;50.560;17.852;2023-04-02T06:20:54;99112.66;;;4.42;100.00
21728;BME280;11026;50.560;17.852;2023-04-02T06:23:37;99128.97;;;4.17;100.00
21728;BME280;11026;50.560;17.852;2023-04-02T06:26:30;99129.28;;;4.05;100.00
21728;BME280;11026;50.560;17.852;2023-04-02T06:29:06;99141.81;;;3.91;100.00
21728;BME280;11026;50.560;17.852;2023-04-02T06:31:36;99139.38;;;3.83;100.00
21728;BME280;11026;50.560;17.852;2023-04-02T06:34:20;99152.72;;;3.73;100.00
21728;BME280;11026;50.560;17.852;2023-04-02T06:36:50;99157.75;;;3.41;100.00
21728;BME280;11026;50.560;17.852;2023-04-02T06:39:22;99164.88;;;3.33;100.00
21728;BME280;11026;50.560;17.852;2023-04-02T06:42:13;99165.00;;;3.27;100.00
21728;BME280;11026;50.560;17.852;2023-04-02T06:44:43;99176.38;;;3.25;100.00
21728;BME280;11026;50.560;17.852;2023-04-02T06:47:36;99179.88;;;3.24;100.00
21728;BME280;11026;50.560;17.852;2023-04-02T06:50:14;99185.25;;;3.17;100.00
21728;BME280;11026;50.560;17.852;2023-04-02T06:52:48;99185.34;;;3.11;100.00
21728;BME280;11026;50.560;17.852;2023-04-02T06:57:47;99195.81;;;3.11;100.00
21728;BME280;11026;50.560;17.852;2023-04-02T07:00:31;99207.00;;;3.18;100.00
21728;BME280;11026;50.560;17.852;2023-04-02T07:03:04;99196.56;;;3.18;100.00
21728;BME280;11026;50.560;17.852;2023-04-02T07:05:32;99206.16;;;3.17;100.00
21728;BME280;11026;50.560;17.852;2023-04-02T07:08:00;99213.03;;;3.22;100.00
21728;BME280;11026;50.560;17.852;2023-04-02T07:13:28;99219.22;;;3.17;100.00
21728;BME280;11026;50.560;17.852;2023-04-02T07:15:56;99234.06;;;3.15;100.00
21728;BME280;11026;50.560;17.852;2023-04-02T07:18:32;99223.59;;;3.15;100.00
21728;BME280;11026;50.560;17.852;2023-04-02T07:21:00;99227.22;;;3.08;100.00
21728;BME280;11026;50.560;17.852;2023-04-02T07:23:28;99225.50;;;3.07;100.00
21728;BME280;11026;50.560;17.852;2023-04-02T07:25:56;99229.00;;;3.06;100.00
21728;BME280;11026;50.560;17.852;2023-04-02T07:28:24;99226.34;;;3.08;100.00
21728;BME280;11026;50.560;17.852;2023-04-02T07:30:58;99234.06;;;3.15;100.00
21728;BME280;11026;50.560;17.852;2023-04-02T07:33:28;99247.91;;;3.20;100.00
21728;BME280;11026;50.560;17.852;2023-04-02T07:35:57;99239.28;;;3.15;100.00
21728;BME280;11026;50.560;17.852;2023-04-02T07:38:24;99240.19;;;3.14;100.00
21728;BME280;11026;50.560;17.852;2023-04-02T07:40:52;99240.84;;;3.26;100.00
21728;BME280;11026;50.560;17.852;2023-04-02T07:43:21;99253.91;;;3.26;100.00
21728;BME280;11026;50.560;17.852;2023-04-02T07:45:49;99253.88;;;3.29;100.00
21728;BME280;11026;50.560;17.852;2023-04-02T07:48:24;99254.78;;;3.25;100.00
21728;BME280;11026;50.560;17.852;2023-04-02T07:50:52;99274.69;;;3.32;100.00
21728;BME280;11026;50.560;17.852;2023-04-02T07:53:32;99277.16;;;3.41;100.00
21728;BME280;11026;50.560;17.852;2023-04-02T07:56:02;99273.22;;;3.63;100.00
21728;BME280;11026;50.560;17.852;2023-04-02T07:58:31;99273.50;;;3.93;100.00
21728;BME280;11026;50.560;17.852;2023-04-02T08:00:59;99284.88;;;3.92;100.00
21728;BME280;11026;50.560;17.852;2023-04-02T08:03:27;99284.13;;;3.84;100.00
21728;BME280;11026;50.560;17.852;2023-04-02T08:05:57;99285.88;;;3.85;100.00
21728;BME280;11026;50.560;17.852;2023-04-02T08:08:25;99294.59;;;3.84;100.00
21728;BME280;11026;50.560;17.852;2023-04-02T08:10:53;99301.53;;;3.86;100.00
21728;BME280;11026;50.560;17.852;2023-04-02T08:13:21;99304.03;;;3.92;100.00
21728;BME280;11026;50.560;17.852;2023-04-02T08:15:48;99307.47;;;3.96;100.00
21728;BME280;11026;50.560;17.852;2023-04-02T08:18:16;99315.31;;;3.96;100.00
21728;BME280;11026;50.560;17.852;2023-04-02T08:20:43;99318.91;;;3.90;100.00
21728;BME280;11026;50.560;17.852;2023-04-02T08:23:14;99319.81;;;3.88;100.00
21728;BME280;11026;50.560;17.852;2023-04-02T08:25:44;99329.41;;;3.89;100.00
21728;BME280;11026;50.560;17.852;2023-04-02T08:28:19;99332.88;;;3.89;100.00
21728;BME280;11026;50.560;17.852;2023-04-02T08:30:48;99338.88;;;3.96;100.00
21728;BME280;11026;50.560;17.852;2023-04-02T08:33:18;99336.16;;;4.01;100.00
21728;BME280;11026;50.560;17.852;2023-04-02T08:35:46;99334.50;;;3.97;100.00
21728;BME280;11026;50.560;17.852;2023-04-02T08:38:16;99331.84;;;3.98;100.00
21728;BME280;11026;50.560;17.852;2023-04-02T08:40:48;99338.66;;;4.05;100.00
21728;BME280;11026;50.560;17.852;2023-04-02T08:43:55;99345.56;;;4.09;100.00
21728;BME280;11026;50.560;17.852;2023-04-02T08:49:12;99345.47;;;4.14;100.00
21728;BME280;11026;50.560;17.852;2023-04-02T08:51:43;99354.91;;;4.21;100.00
21728;BME280;11026;50.560;17.852;2023-04-02T08:54:21;99361.91;;;4.21;100.00
21728;BME280;11026;50.560;17.852;2023-04-02T08:59:53;99355.47;;;4.37;100.00
21728;BME280;11026;50.560;17.852;2023-04-02T09:02:59;99357.91;;;4.44;100.00
21728;BME280;11026;50.560;17.852;2023-04-02T09:05:32;99373.03;;;4.32;100.00
21728;BME280;11026;50.560;17.852;2023-04-02T09:08:03;99364.28;;;4.33;100.00
21728;BME280;11026;50.560;17.852;2023-04-02T09:10:54;99371.19;;;4.35;100.00
21728;BME280;11026;50.560;17.852;2023-04-02T09:13:27;99376.66;;;4.25;100.00
21728;BME280;11026;50.560;17.852;2023-04-02T09:16:17;99388.81;;;4.29;100.00
21728;BME280;11026;50.560;17.852;2023-04-02T09:18:50;99395.88;;;4.24;100.00
21728;BME280;11026;50.560;17.852;2023-04-02T09:21:34;99391.53;;;4.23;100.00
21728;BME280;11026;50.560;17.852;2023-04-02T09:24:03;99397.63;;;4.25;100.00
21728;BME280;11026;50.560;17.852;2023-04-02T09:26:32;99400.19;;;4.26;100.00
21728;BME280;11026;50.560;17.852;2023-04-02T09:31:51;99397.50;;;4.29;100.00
21728;BME280;11026;50.560;17.852;2023-04-02T09:34:35;99404.50;;;4.29;100.00
21728;BME280;11026;50.560;17.852;2023-04-02T09:37:29;99407.09;;;4.30;100.00
21728;BME280;11026;50.560;17.852;2023-04-02T09:40:15;99426.16;;;4.37;100.00
21728;BME280;11026;50.560;17.852;2023-04-02T09:42:43;99425.31;;;4.35;100.00
21728;BME280;11026;50.560;17.852;2023-04-02T09:45:20;99427.78;;;4.44;100.00
21728;BME280;11026;50.560;17.852;2023-04-02T09:47:49;99435.00;;;4.31;100.00
21728;BME280;11026;50.560;17.852;2023-04-02T09:50:29;99433.22;;;4.33;100.00
21728;BME280;11026;50.560;17.852;2023-04-02T09:52:59;99436.69;;;4.34;100.00
21728;BME280;11026;50.560;17.852;2023-04-02T09:55:48;99442.84;;;4.33;100.00
21728;BME280;11026;50.560;17.852;2023-04-02T09:58:17;99448.19;;;4.27;100.00
21728;BME280;11026;50.560;17.852;2023-04-02T10:00:53;99446.56;;;4.19;100.00
21728;BME280;11026;50.560;17.852;2023-04-02T10:03:26;99441.28;;;4.23;100.00
21728;BME280;11026;50.560;17.852;2023-04-02T10:06:12;99447.13;;;4.37;100.00
21728;BME280;11026;50.560;17.852;2023-04-02T10:08:43;99454.56;;;4.55;100.00
21728;BME280;11026;50.560;17.852;2023-04-02T10:11:15;99450.81;;;4.68;100.00
21728;BME280;11026;50.560;17.852;2023-04-02T10:13:58;99455.91;;;4.76;100.00
21728;BME280;11026;50.560;17.852;2023-04-02T10:16:32;99461.78;;;4.86;100.00
21728;BME280;11026;50.560;17.852;2023-04-02T10:19:28;99459.75;;;4.99;100.00
21728;BME280;11026;50.560;17.852;2023-04-02T10:22:02;99463.88;;;5.10;100.00
21728;BME280;11026;50.560;17.852;2023-04-02T10:24:32;99471.72;;;5.12;100.00
21728;BME280;11026;50.560;17.852;2023-04-02T10:27:12;99477.13;;;5.03;100.00
21728;BME280;11026;50.560;17.852;2023-04-02T10:36:07;99477.25;;;4.98;100.00
21728;BME280;11026;50.560;17.852;2023-04-02T10:44:03;99482.06;;;4.78;100.00
21728;BME280;11026;50.560;17.852;2023-04-02T10:55:27;99496.69;;;4.46;100.00
21728;BME280;11026;50.560;17.852;2023-04-02T10:57:59;99504.63;;;4.41;100.00
21728;BME280;11026;50.560;17.852;2023-04-02T11:00:36;99515.00;;;4.48;100.00
21728;BME280;11026;50.560;17.852;2023-04-02T11:03:13;99518.25;;;4.60;100.00
21728;BME280;11026;50.560;17.852;2023-04-02T11:05:50;99523.38;;;4.65;100.00
21728;BME280;11026;50.560;17.852;2023-04-02T11:10:58;99534.97;;;4.53;100.00
21728;BME280;11026;50.560;17.852;2023-04-02T11:16:11;99529.78;;;4.50;100.00
21728;BME280;11026;50.560;17.852;2023-04-02T11:18:41;99543.59;;;4.58;100.00
21728;BME280;11026;50.560;17.852;2023-04-02T11:21:37;99539.88;;;4.72;100.00
21728;BME280;11026;50.560;17.852;2023-04-02T11:24:30;99539.53;;;4.87;100.00
21728;BME280;11026;50.560;17.852;2023-04-02T11:32:33;99546.09;;;5.06;96.33
21728;BME280;11026;50.560;17.852;2023-04-02T11:38:02;99562.00;;;5.00;93.65
21728;BME280;11026;50.560;17.852;2023-04-02T11:40:53;99557.81;;;4.91;93.74
21728;BME280;11026;50.560;17.852;2023-04-02T11:48:43;99568.88;;;4.61;95.76
21728;BME280;11026;50.560;17.852;2023-04-02T11:53:55;99581.06;;;4.63;98.19
21728;BME280;11026;50.560;17.852;2023-04-02T11:56:33;99579.31;;;4.62;98.15
21728;BME280;11026;50.560;17.852;2023-04-02T12:02:27;99586.13;;;4.71;97.81
21728;BME280;11026;50.560;17.852;2023-04-02T12:10:58;99590.94;;;4.49;96.02
21728;BME280;11026;50.560;17.852;2023-04-02T12:16:09;99583.22;;;4.41;97.90
21728;BME280;11026;50.560;17.852;2023-04-02T12:18:47;99598.16;;;4.35;96.78
21728;BME280;11026;50.560;17.852;2023-04-02T12:21:18;99607.81;;;4.33;97.04
21728;BME280;11026;50.560;17.852;2023-04-02T12:23:48;99605.06;;;4.39;97.59
21728;BME280;11026;50.560;17.852;2023-04-02T12:26:34;99603.31;;;4.41;97.52
21728;BME280;11026;50.560;17.852;2023-04-02T12:29:21;99620.69;;;4.45;97.21
21728;BME280;11026;50.560;17.852;2023-04-02T12:31:53;99618.00;;;4.50;97.17
21728;BME280;11026;50.560;17.852;2023-04-02T12:34:25;99617.91;;;4.56;97.16
21728;BME280;11026;50.560;17.852;2023-04-02T12:37:02;99629.19;;;4.59;97.42
21728;BME280;11026;50.560;17.852;2023-04-02T12:39:33;99632.81;;;4.52;96.55
21728;BME280;11026;50.560;17.852;2023-04-02T12:42:01;99632.13;;;4.41;95.42
21728;BME280;11026;50.560;17.852;2023-04-02T12:44:30;99638.19;;;4.43;95.87
21728;BME280;11026;50.560;17.852;2023-04-02T12:46:58;99638.94;;;4.50;96.89
21728;BME280;11026;50.560;17.852;2023-04-02T12:49:39;99638.03;;;4.52;96.50
21728;BME280;11026;50.560;17.852;2023-04-02T12:52:13;99644.38;;;4.39;95.76
21728;BME280;11026;50.560;17.852;2023-04-02T12:57:38;99655.66;;;4.42;96.56
21728;BME280;11026;50.560;17.852;2023-04-02T13:02:51;99644.19;;;4.50;95.85
21728;BME280;11026;50.560;17.852;2023-04-02T13:05:37;99649.13;;;4.66;96.02
21728;BME280;11026;50.560;17.852;2023-04-02T13:08:39;99652.50;;;4.73;94.89
21728;BME280;11026;50.560;17.852;2023-04-02T13:11:08;99657.75;;;4.73;93.42
21728;BME280;11026;50.560;17.852;2023-04-02T13:13:38;99654.31;;;4.69;93.50
21728;BME280;11026;50.560;17.852;2023-04-02T13:18:46;99668.53;;;4.56;93.71
21728;BME280;11026;50.560;17.852;2023-04-02T13:21:21;99669.41;;;4.55;94.54
21728;BME280;11026;50.560;17.852;2023-04-02T13:23:49;99667.72;;;4.51;94.68
21728;BME280;11026;50.560;17.852;2023-04-02T13:26:25;99666.94;;;4.46;95.02
21728;BME280;11026;50.560;17.852;2023-04-02T13:29:19;99676.59;;;4.44;95.21
21728;BME280;11026;50.560;17.852;2023-04-02T13:31:48;99673.94;;;4.46;95.20
21728;BME280;11026;50.560;17.852;2023-04-02T13:34:16;99674.72;;;4.52;95.78
21728;BME280;11026;50.560;17.852;2023-04-02T13:36:44;99675.38;;;4.65;96.52
21728;BME280;11026;50.560;17.852;2023-04-02T13:39:12;99677.00;;;4.72;95.22
21728;BME280;11026;50.560;17.852;2023-04-02T13:41:45;99680.56;;;4.68;93.02
21728;BME280;11026;50.560;17.852;2023-04-02T13:44:19;99677.13;;;4.64;93.01
21728;BME280;11026;50.560;17.852;2023-04-02T13:46:49;99680.56;;;4.66;92.27
21728;BME280;11026;50.560;17.852;2023-04-02T13:49:18;99686.66;;;4.68;92.81
21728;BME280;11026;50.560;17.852;2023-04-02T13:52:03;99695.25;;;4.77;93.83
21728;BME280;11026;50.560;17.852;2023-04-02T13:57:08;99705.00;;;4.68;92.28
21728;BME280;11026;50.560;17.852;2023-04-02T13:59:35;99697.97;;;4.71;92.59
21728;BME280;11026;50.560;17.852;2023-04-02T14:02:10;99709.47;;;4.63;93.34
21728;BME280;11026;50.560;17.852;2023-04-02T14:04:44;99707.66;;;4.65;93.71
21728;BME280;11026;50.560;17.852;2023-04-02T14:07:28;99699.06;;;4.57;93.00
21728;BME280;11026;50.560;17.852;2023-04-02T14:10:22;99717.50;;;4.51;92.74
21728;BME280;11026;50.560;17.852;2023-04-02T14:13:16;99721.91;;;4.49;93.12
21728;BME280;11026;50.560;17.852;2023-04-02T14:18:43;99721.41;;;4.26;94.47
21728;BME280;11026;50.560;17.852;2023-04-02T14:21:49;99729.22;;;4.29;94.94
21728;BME280;11026;50.560;17.852;2023-04-02T14:24:49;99718.75;;;4.29;95.27
21728;BME280;11026;50.560;17.852;2023-04-02T14:35:28;99732.53;;;4.41;94.69
21728;BME280;11026;50.560;17.852;2023-04-02T14:43:09;99747.22;;;4.50;94.26
21728;BME280;11026;50.560;17.852;2023-04-02T14:45:58;99741.22;;;4.42;92.88
21728;BME280;11026;50.560;17.852;2023-04-02T14:48:47;99752.56;;;4.44;93.78
21728;BME280;11026;50.560;17.852;2023-04-02T14:51:52;99750.78;;;4.46;93.94
21728;BME280;11026;50.560;17.852;2023-04-02T14:54:33;99753.63;;;4.31;93.52
21728;BME280;11026;50.560;17.852;2023-04-02T14:57:09;99750.19;;;4.29;94.52
21728;BME280;11026;50.560;17.852;2023-04-02T15:02:49;99754.53;;;4.30;95.34
21728;BME280;11026;50.560;17.852;2023-04-02T15:11:04;99760.63;;;4.32;94.55
21728;BME280;11026;50.560;17.852;2023-04-02T15:13:43;99774.53;;;4.34;94.36
21728;BME280;11026;50.560;17.852;2023-04-02T15:16:16;99767.47;;;4.39;95.14
21728;BME280;11026;50.560;17.852;2023-04-02T15:18:50;99774.38;;;4.44;94.97
21728;BME280;11026;50.560;17.852;2023-04-02T15:27:17;99776.16;;;4.44;94.53
21728;BME280;11026;50.560;17.852;2023-04-02T15:30:13;99785.72;;;4.45;94.34
21728;BME280;11026;50.560;17.852;2023-04-02T15:32:45;99790.03;;;4.49;94.01
21728;BME280;11026;50.560;17.852;2023-04-02T15:35:40;99793.41;;;4.57;94.95
21728;BME280;11026;50.560;17.852;2023-04-02T15:38:58;99796.94;;;4.53;94.04
21728;BME280;11026;50.560;17.852;2023-04-02T15:41:25;99795.22;;;4.52;93.82
21728;BME280;11026;50.560;17.852;2023-04-02T15:44:13;99797.94;;;4.48;93.67
21728;BME280;11026;50.560;17.852;2023-04-02T15:47:01;99804.88;;;4.47;93.67
21728;BME280;11026;50.560;17.852;2023-04-02T15:52:19;99807.44;;;4.53;93.98
21728;BME280;11026;50.560;17.852;2023-04-02T15:55:13;99804.75;;;4.58;93.91
21728;BME280;11026;50.560;17.852;2023-04-02T15:58:15;99812.72;;;4.50;93.24
21728;BME280;11026;50.560;17.852;2023-04-02T16:01:14;99821.53;;;4.44;93.42
21728;BME280;11026;50.560;17.852;2023-04-02T16:04:14;99814.50;;;4.48;94.45
21728;BME280;11026;50.560;17.852;2023-04-02T16:09:54;99829.47;;;4.38;94.75
21728;BME280;11026;50.560;17.852;2023-04-02T16:12:30;99827.72;;;4.39;95.55
21728;BME280;11026;50.560;17.852;2023-04-02T16:15:23;99838.22;;;4.37;95.88
21728;BME280;11026;50.560;17.852;2023-04-02T16:18:00;99834.72;;;4.38;96.06
21728;BME280;11026;50.560;17.852;2023-04-02T16:20:58;99830.34;;;4.39;96.26
21728;BME280;11026;50.560;17.852;2023-04-02T16:23:36;99849.59;;;4.35;96.18
21728;BME280;11026;50.560;17.852;2023-04-02T16:28:58;99849.56;;;4.38;97.16
21728;BME280;11026;50.560;17.852;2023-04-02T16:39:59;99860.13;;;4.32;98.60
21728;BME280;11026;50.560;17.852;2023-04-02T16:42:54;99861.84;;;4.34;99.42
21728;BME280;11026;50.560;17.852;2023-04-02T16:48:22;99867.97;;;4.33;99.94
21728;BME280;11026;50.560;17.852;2023-04-02T17:07:44;99882.81;;;4.31;100.00
21728;BME280;11026;50.560;17.852;2023-04-02T17:10:29;99888.13;;;4.27;100.00
21728;BME280;11026;50.560;17.852;2023-04-02T17:13:24;99894.31;;;4.21;100.00
21728;BME280;11026;50.560;17.852;2023-04-02T17:16:17;99903.97;;;4.17;100.00
21728;BME280;11026;50.560;17.852;2023-04-02T17:18:53;99898.75;;;4.14;100.00
21728;BME280;11026;50.560;17.852;2023-04-02T17:21:27;99906.69;;;4.08;100.00
21728;BME280;11026;50.560;17.852;2023-04-02T17:24:23;99910.16;;;4.10;100.00
21728;BME280;11026;50.560;17.852;2023-04-02T17:27:05;99910.13;;;4.13;100.00
21728;BME280;11026;50.560;17.852;2023-04-02T17:29:41;99911.91;;;4.10;100.00